Time;durP1;ratioP1;P1;durP2;ratioP2;P2;SDS_P1;SDS_P2;PMS_P1;PMS_P2;Temp;Humidity;BMP_temperature;BMP_pressure;BME280_temperature;BME280_humidity;BME280_pressure;Samples;Min_cycle;Max_cycle;Signal;HPM_P1;HPM_P2
2022/09/17 00:07:24;;;;;;;0.20;0.00;;;20.90;99.90;;;;;;25987796;22;20218;-70
2022/09/17 00:17:29;;;;;;;0.20;0.00;;;20.90;99.90;;;;;;26038790;22;20203;-71
2022/09/17 00:27:33;;;;;;;0.20;0.00;;;20.90;99.90;;;;;;26013593;22;20202;-71
2022/09/17 00:37:38;;;;;;;0.20;0.00;;;21.00;99.90;;;;;;26039017;22;20263;-72
2022/09/17 00:47:45;;;;;;;0.20;0.00;;;21.00;99.90;;;;;;26018253;22;20251;-72
2022/09/17 00:57:53;;;;;;;0.20;0.00;;;20.90;99.90;;;;;;26046583;22;20215;-72
2022/09/17 01:08:05;;;;;;;0.20;0.00;;;20.90;99.90;;;;;;26047390;22;20221;-71
2022/09/17 01:18:22;;;;;;;0.20;0.00;;;20.80;99.90;;;;;;26047429;22;20164;-72
2022/09/17 01:28:41;;;;;;;0.20;0.00;;;20.70;99.90;;;;;;26046093;22;20191;-72
2022/09/17 01:38:54;;;;;;;0.20;0.00;;;20.60;99.90;;;;;;26019755;22;20187;-73
2022/09/17 01:49:02;;;;;;;0.20;0.00;;;20.60;99.90;;;;;;26021276;22;20215;-71
2022/09/17 01:59:15;;;;;;;0.20;0.00;;;20.60;99.90;;;;;;26044386;22;20264;-72
2022/09/17 02:09:23;;;;;;;0.20;0.00;;;20.70;99.90;;;;;;26018849;22;20176;-72
2022/09/17 02:19:32;;;;;;;0.20;0.00;;;20.70;99.90;;;;;;26044466;22;20192;-72
2022/09/17 02:29:40;;;;;;;0.20;0.00;;;20.60;99.90;;;;;;26042695;22;20227;-71
2022/09/17 02:39:45;;;;;;;0.20;0.00;;;20.70;99.90;;;;;;26017273;22;20248;-71
2022/09/17 02:50:05;;;;;;;0.20;0.00;;;20.80;99.90;;;;;;26041762;22;20203;-72
2022/09/17 03:00:15;;;;;;;0.20;0.00;;;20.90;99.90;;;;;;26044017;22;20186;-71
2022/09/17 03:10:19;;;;;;;0.20;0.00;;;20.90;99.90;;;;;;26043636;22;20195;-72
2022/09/17 03:20:24;;;;;;;0.20;0.00;;;21.00;99.90;;;;;;26042708;22;20196;-71
2022/09/17 03:30:28;;;;;;;0.20;0.00;;;21.10;99.90;;;;;;26041353;22;20248;-71
2022/09/17 03:40:33;;;;;;;0.20;0.00;;;21.00;99.90;;;;;;26043167;22;20243;-71
2022/09/17 03:50:37;;;;;;;0.20;0.00;;;21.00;99.90;;;;;;26039919;22;20184;-71
2022/09/17 04:00:42;;;;;;;0.20;0.10;;;20.80;99.90;;;;;;26014948;22;20199;-71
2022/09/17 04:10:46;;;;;;;0.20;0.10;;;20.70;99.90;;;;;;26013423;22;20248;-71
2022/09/17 04:20:52;;;;;;;0.20;0.10;;;20.30;99.90;;;;;;26046225;22;20261;-72
2022/09/17 04:30:56;;;;;;;0.20;0.10;;;20.00;99.90;;;;;;26022659;22;20199;-72
2022/09/17 04:41:01;;;;;;;0.20;0.00;;;19.80;99.90;;;;;;26043491;22;20180;-71
2022/09/17 04:51:05;;;;;;;0.20;0.00;;;19.70;99.90;;;;;;26041986;22;20214;-71
2022/09/17 05:01:12;;;;;;;0.20;0.00;;;19.80;99.90;;;;;;26047122;22;20196;-71
2022/09/17 05:11:16;;;;;;;0.20;0.10;;;19.80;99.90;;;;;;26049438;22;20176;-70
2022/09/17 05:21:21;;;;;;;0.20;0.10;;;19.50;99.90;;;;;;26019851;22;20232;-73
2022/09/17 05:31:25;;;;;;;0.20;0.10;;;19.70;99.90;;;;;;26046130;22;20232;-70
2022/09/17 05:41:30;;;;;;;0.20;0.00;;;19.70;99.90;;;;;;26015369;22;20176;-70
2022/09/17 05:51:34;;;;;;;0.20;0.00;;;19.60;99.90;;;;;;26017282;22;20255;-72
2022/09/17 06:01:39;;;;;;;0.20;0.10;;;19.60;99.90;;;;;;26042994;22;20161;-71
2022/09/17 06:11:43;;;;;;;0.20;0.10;;;19.60;99.90;;;;;;26043899;22;20196;-70
2022/09/17 06:21:49;;;;;;;0.20;0.10;;;19.70;99.90;;;;;;26041748;22;20210;-70
2022/09/17 06:31:54;;;;;;;0.20;0.10;;;19.80;99.90;;;;;;26017162;22;20263;-70
2022/09/17 06:41:59;;;;;;;0.20;0.00;;;19.80;99.90;;;;;;26039856;22;20227;-68
2022/09/17 06:52:04;;;;;;;0.20;0.10;;;19.80;99.90;;;;;;26014404;22;20203;-70
2022/09/17 07:02:10;;;;;;;0.20;0.00;;;20.10;99.90;;;;;;26040344;22;20180;-69
2022/09/17 07:12:13;;;;;;;0.20;0.10;;;20.50;99.90;;;;;;26014491;22;20195;-69
2022/09/17 07:22:18;;;;;;;0.20;0.00;;;20.50;99.90;;;;;;26038455;22;20247;-70
2022/09/17 07:32:22;;;;;;;0.20;0.10;;;20.60;99.90;;;;;;26037417;22;20308;-70
2022/09/17 07:42:27;;;;;;;0.20;0.00;;;20.80;99.90;;;;;;26038125;22;20244;-71
2022/09/17 07:52:31;;;;;;;0.20;0.10;;;21.20;99.90;;;;;;26036700;22;20191;-71
2022/09/17 08:02:36;;;;;;;0.20;0.00;;;21.40;99.90;;;;;;26038126;22;20216;-71
2022/09/17 08:12:40;;;;;;;0.20;0.00;;;21.50;99.90;;;;;;26038143;22;20210;-70
2022/09/17 08:22:45;;;;;;;0.20;0.10;;;21.20;99.90;;;;;;26039669;22;20361;-70
2022/09/17 08:32:56;;;;;;;0.20;0.00;;;21.60;99.90;;;;;;26011788;22;20183;-70
2022/09/17 08:43:02;;;;;;;0.20;0.00;;;21.80;99.90;;;;;;26039282;22;20722;-70
2022/09/17 08:53:26;;;;;;;0.20;0.00;;;21.70;99.90;;;;;;26037427;22;20188;-70
2022/09/17 09:03:45;;;;;;;0.20;0.00;;;22.00;99.90;;;;;;26037214;22;20157;-71
2022/09/17 09:13:54;;;;;;;0.20;0.00;;;22.70;99.90;;;;;;26043433;22;20258;-72
2022/09/17 09:24:05;;;;;;;0.20;0.00;;;23.00;99.90;;;;;;26017445;22;20205;-70
2022/09/17 09:34:09;;;;;;;0.20;0.00;;;23.10;99.90;;;;;;26041859;22;20190;-69
2022/09/17 09:44:16;;;;;;;0.20;0.00;;;23.00;99.90;;;;;;26042154;22;20769;-69
2022/09/17 09:54:35;;;;;;;0.20;0.00;;;23.80;99.90;;;;;;26014419;22;20219;-71
2022/09/17 10:04:40;;;;;;;0.20;0.00;;;23.80;99.90;;;;;;26039020;22;20250;-69
2022/09/17 10:14:46;;;;;;;0.20;0.00;;;24.40;99.90;;;;;;26011438;22;20207;-70
2022/09/17 10:24:52;;;;;;;0.20;0.10;;;24.90;99.90;;;;;;26039381;22;20183;-71
2022/09/17 10:35:03;;;;;;;0.20;0.00;;;25.10;99.90;;;;;;26041007;22;20746;-72
2022/09/17 10:45:24;;;;;;;0.20;0.00;;;25.60;99.90;;;;;;26039397;22;20168;-70
2022/09/17 10:55:32;;;;;;;0.20;0.00;;;26.00;99.90;;;;;;26037720;22;20281;-71
2022/09/17 11:05:53;;;;;;;0.20;0.00;;;27.70;99.90;;;;;;26038458;22;20327;-68
2022/09/17 11:16:11;;;;;;;0.20;0.00;;;28.40;99.90;;;;;;26011604;22;20266;-69
2022/09/17 11:26:30;;;;;;;0.20;0.00;;;28.10;99.90;;;;;;26035860;22;20156;-67
2022/09/17 11:36:45;;;;;;;0.20;0.00;;;27.70;99.90;;;;;;26035300;22;20191;-69
2022/09/17 11:46:55;;;;;;;0.20;0.00;;;28.00;99.90;;;;;;26033245;22;20239;-69
2022/09/17 11:57:06;;;;;;;0.20;0.00;;;28.50;99.90;;;;;;26033045;22;20201;-70
2022/09/17 12:07:25;;;;;;;0.20;0.00;;;27.40;99.90;;;;;;26035537;22;20184;-68
2022/09/17 12:17:41;;;;;;;0.20;0.00;;;27.20;99.90;;;;;;26036630;22;20190;-69
2022/09/17 12:27:55;;;;;;;0.20;0.00;;;28.00;99.90;;;;;;26036062;22;20167;-68
2022/09/17 12:38:12;;;;;;;0.20;0.00;;;29.30;99.90;;;;;;26010905;22;20190;-70
2022/09/17 12:48:40;;;;;;;0.20;0.00;;;30.20;99.90;;;;;;26018041;22;20168;-70
2022/09/17 12:59:04;;;;;;;0.20;0.00;;;29.20;99.90;;;;;;25902942;23;20188;-69
2022/09/17 13:09:38;;;;;;;0.20;0.00;;;29.60;99.90;;;;;;25917916;23;20197;-70
2022/09/17 13:19:47;;;;;;;0.20;0.00;;;30.10;99.90;;;;;;25885252;23;20177;-71
2022/09/17 13:30:02;;;;;;;0.20;0.00;;;30.60;99.90;;;;;;25912417;23;20173;-70
2022/09/17 13:40:20;;;;;;;0.20;0.10;;;31.00;99.90;;;;;;25913752;23;20326;-68
2022/09/17 13:50:28;;;;;;;0.20;0.00;;;29.50;99.90;;;;;;25940452;22;20188;-70
2022/09/17 14:00:51;;;;;;;0.20;0.00;;;28.40;99.90;;;;;;26043444;22;20218;-70
2022/09/17 14:10:59;;;;;;;0.20;0.00;;;27.10;99.90;;;;;;26043026;22;20180;-68
2022/09/17 14:21:11;;;;;;;0.20;0.00;;;27.60;99.90;;;;;;26017123;22;20268;-69
2022/09/17 14:31:21;;;;;;;0.20;0.00;;;26.30;99.90;;;;;;26039749;22;20227;-71
2022/09/17 14:41:29;;;;;;;0.20;0.00;;;27.00;99.90;;;;;;26015477;22;20187;-71
2022/09/17 14:51:39;;;;;;;0.20;0.00;;;26.10;99.90;;;;;;26012459;22;20208;-70
2022/09/17 15:01:47;;;;;;;0.20;0.10;;;26.00;99.90;;;;;;26008780;22;20199;-69
2022/09/17 15:11:55;;;;;;;0.20;0.00;;;25.20;99.90;;;;;;26038762;22;20191;-70
2022/09/17 15:22:01;;;;;;;0.20;0.00;;;25.30;99.90;;;;;;26034339;22;20396;-70
2022/09/17 15:32:09;;;;;;;0.20;0.10;;;25.50;99.90;;;;;;26037461;22;20160;-70
2022/09/17 15:42:21;;;;;;;0.20;0.00;;;25.80;99.90;;;;;;26037376;22;20173;-70
2022/09/17 15:52:34;;;;;;;0.20;0.00;;;25.60;99.90;;;;;;26005689;22;20235;-70
2022/09/17 16:02:38;;;;;;;0.20;0.00;;;25.30;99.90;;;;;;26033499;22;20203;-70
2022/09/17 16:12:44;;;;;;;0.20;0.00;;;25.10;99.90;;;;;;26036459;22;20199;-67
2022/09/17 16:22:48;;;;;;;0.20;0.00;;;25.10;99.90;;;;;;26010126;22;20222;-70
2022/09/17 16:32:53;;;;;;;0.20;0.00;;;25.00;99.90;;;;;;26035841;22;20176;-71
2022/09/17 16:43:00;;;;;;;0.20;0.08;;;25.00;99.90;;;;;;26035275;22;20184;-69
2022/09/17 16:53:06;;;;;;;0.20;0.00;;;24.90;99.90;;;;;;26034503;22;20727;-69
2022/09/17 17:03:12;;;;;;;0.20;0.00;;;24.70;99.90;;;;;;26033925;22;20204;-68
2022/09/17 17:13:18;;;;;;;0.20;0.00;;;24.80;99.90;;;;;;26004877;22;20204;-70
2022/09/17 17:23:22;;;;;;;0.20;0.00;;;24.50;99.90;;;;;;26005390;22;20180;-69
2022/09/17 17:33:27;;;;;;;0.20;0.00;;;24.30;99.90;;;;;;26041031;22;20222;-70
2022/09/17 17:43:31;;;;;;;0.20;0.00;;;24.20;99.90;;;;;;26015756;22;20179;-70
2022/09/17 17:53:37;;;;;;;0.20;0.00;;;24.10;99.90;;;;;;26039910;22;20192;-67
2022/09/17 18:03:40;;;;;;;0.20;0.00;;;24.00;99.90;;;;;;26037708;22;20191;-69
2022/09/17 18:13:45;;;;;;;0.20;0.00;;;24.00;99.90;;;;;;26034387;22;20240;-72
2022/09/17 18:23:50;;;;;;;0.20;0.00;;;24.00;99.90;;;;;;26039339;22;20208;-70
2022/09/17 18:33:57;;;;;;;0.20;0.00;;;23.90;99.90;;;;;;26042511;22;20157;-70
2022/09/17 18:44:01;;;;;;;0.20;0.00;;;23.90;99.90;;;;;;26010486;22;20164;-71
2022/09/17 18:54:06;;;;;;;0.20;0.00;;;23.70;99.90;;;;;;26035661;22;20283;-71
2022/09/17 19:04:10;;;;;;;0.20;0.10;;;23.60;99.90;;;;;;26034730;22;20211;-70
2022/09/17 19:14:15;;;;;;;0.20;0.00;;;23.30;99.90;;;;;;26008291;22;20184;-68
2022/09/17 19:24:19;;;;;;;0.20;0.00;;;23.30;99.90;;;;;;26032813;22;20160;-71
2022/09/17 19:34:24;;;;;;;0.20;0.10;;;23.30;99.90;;;;;;26032815;22;20243;-70
2022/09/17 19:44:28;;;;;;;0.20;0.00;;;23.30;99.90;;;;;;26032144;22;20237;-69
2022/09/17 19:54:33;;;;;;;0.20;0.00;;;23.30;99.90;;;;;;26008309;22;20286;-72
2022/09/17 20:04:37;;;;;;;0.20;0.00;;;22.90;99.90;;;;;;26007322;22;20243;-72
2022/09/17 20:14:42;;;;;;;0.20;0.00;;;22.30;99.90;;;;;;26005475;22;21130;-72
2022/09/17 20:24:46;;;;;;;0.20;0.00;;;22.30;99.90;;;;;;26008183;22;20259;-72
2022/09/17 20:34:55;;;;;;;0.20;0.00;;;22.30;99.90;;;;;;26035234;22;20180;-71
2022/09/17 20:44:59;;;;;;;0.20;0.00;;;22.20;99.90;;;;;;26008587;22;20196;-73
2022/09/17 20:55:05;;;;;;;0.20;0.00;;;22.00;99.90;;;;;;26032628;22;20203;-71
2022/09/17 21:05:09;;;;;;;0.20;0.00;;;21.70;99.90;;;;;;26038156;22;20268;-72
2022/09/17 21:15:15;;;;;;;0.20;0.00;;;21.50;99.90;;;;;;26042657;22;20180;-72
2022/09/17 21:25:19;;;;;;;0.20;0.00;;;21.20;99.90;;;;;;26044909;22;20232;-72
2022/09/17 21:35:28;;;;;;;0.20;0.00;;;21.20;99.90;;;;;;26043333;22;20222;-70
2022/09/17 21:45:32;;;;;;;0.20;0.00;;;21.40;99.90;;;;;;26036747;22;20183;-72
2022/09/17 21:55:37;;;;;;;0.20;0.00;;;21.40;99.90;;;;;;26008621;22;20251;-71
2022/09/17 22:05:41;;;;;;;0.20;0.00;;;21.40;99.90;;;;;;26034774;22;20202;-73
2022/09/17 22:15:56;;;;;;;0.20;0.00;;;22.20;99.90;;;;;;26037259;22;20195;-72
2022/09/17 22:26:03;;;;;;;0.20;0.00;;;22.60;99.90;;;;;;26036271;22;20151;-71
2022/09/17 22:36:11;;;;;;;0.20;0.10;;;22.60;99.90;;;;;;26036050;22;20291;-71
2022/09/17 22:46:17;;;;;;;0.20;0.00;;;22.20;99.90;;;;;;26008107;22;20161;-72
2022/09/17 22:56:23;;;;;;;0.20;0.00;;;21.50;99.90;;;;;;26008060;22;20340;-76
2022/09/17 23:06:29;;;;;;;0.20;0.00;;;21.20;99.90;;;;;;26033828;22;20240;-70
2022/09/17 23:16:36;;;;;;;0.20;0.00;;;20.80;99.90;;;;;;26035168;22;20243;-71
2022/09/17 23:26:40;;;;;;;0.20;0.10;;;20.40;99.90;;;;;;26035666;22;20302;-71
2022/09/17 23:36:46;;;;;;;0.20;0.00;;;20.20;99.90;;;;;;26034001;22;20204;-72
2022/09/17 23:46:50;;;;;;;0.20;0.10;;;20.00;99.90;;;;;;26033970;22;20219;-70
2022/09/17 23:56:55;;;;;;;0.20;0.10;;;19.90;99.90;;;;;;26029846;22;20200;-71
